createdAt,value
2023-05-24T00:02:17.320Z,87.07
2023-05-24T00:05:03.001Z,87.08
2023-05-24T00:07:49.311Z,87.13
2023-05-24T00:10:34.615Z,87.26
2023-05-24T00:13:20.502Z,87.28
2023-05-24T00:16:06.210Z,87.18
2023-05-24T00:18:52.346Z,87.31
2023-05-24T00:21:38.101Z,87.28
2023-05-24T00:24:24.106Z,87.26
2023-05-24T00:27:11.898Z,87.13
2023-05-24T00:29:58.255Z,87.23
2023-05-24T00:32:43.760Z,87.40
2023-05-24T00:35:29.818Z,87.41
2023-05-24T00:38:15.915Z,87.18
2023-05-24T00:41:02.098Z,87.73
2023-05-24T00:43:48.016Z,87.70
2023-05-24T00:46:34.116Z,87.70
2023-05-24T00:49:19.669Z,87.70
2023-05-24T00:52:06.554Z,87.82
2023-05-24T00:54:52.134Z,88.14
2023-05-24T00:57:38.285Z,88.00
2023-05-24T01:00:24.332Z,88.32
2023-05-24T01:03:10.392Z,88.36
2023-05-24T01:06:02.742Z,88.02
2023-05-24T01:09:19.985Z,88.18
2023-05-24T01:12:35.959Z,88.53
2023-05-24T01:15:48.985Z,88.42
2023-05-24T01:18:55.577Z,88.62
2023-05-24T01:21:56.332Z,88.86
2023-05-24T01:25:03.766Z,88.73
2023-05-24T01:27:50.583Z,88.97
2023-05-24T01:30:36.677Z,88.69
2023-05-24T01:33:22.460Z,88.93
2023-05-24T01:36:08.725Z,89.43
2023-05-24T01:38:54.524Z,89.25
2023-05-24T01:41:47.173Z,89.58
2023-05-24T01:44:37.595Z,89.30
2023-05-24T01:47:33.189Z,88.87
2023-05-24T01:50:32.499Z,89.07
2023-05-24T01:53:19.980Z,89.56
2023-05-24T01:56:06.785Z,89.71
2023-05-24T01:58:53.346Z,89.32
2023-05-24T02:01:39.898Z,89.33
2023-05-24T02:04:25.964Z,89.54
2023-05-24T02:07:12.176Z,89.16
2023-05-24T02:09:57.715Z,89.06
2023-05-24T02:12:43.612Z,89.03
2023-05-24T02:15:30.636Z,88.28
2023-05-24T02:18:18.738Z,88.71
2023-05-24T02:21:04.451Z,88.25
2023-05-24T02:23:50.375Z,88.55
2023-05-24T02:26:36.317Z,88.84
2023-05-24T02:29:23.189Z,88.17
2023-05-24T02:32:08.893Z,88.52
2023-05-24T02:34:54.686Z,89.29
2023-05-24T02:37:41.053Z,88.38
2023-05-24T02:40:26.963Z,88.99
2023-05-24T02:43:12.347Z,88.20
2023-05-24T02:45:58.243Z,89.08
2023-05-24T02:48:43.631Z,88.24
2023-05-24T02:51:29.794Z,88.81
2023-05-24T02:54:17.759Z,89.01
2023-05-24T02:57:04.133Z,89.13
2023-05-24T02:59:50.165Z,88.76
2023-05-24T03:02:38.635Z,88.76
2023-05-24T03:05:24.902Z,88.61
2023-05-24T03:08:10.945Z,88.76
2023-05-24T03:10:56.779Z,88.28
2023-05-24T03:13:42.583Z,88.96
2023-05-24T03:16:29.511Z,88.22
2023-05-24T03:19:17.394Z,88.86
2023-05-24T03:22:03.438Z,88.48
2023-05-24T03:24:50.100Z,88.40
2023-05-24T03:27:36.721Z,88.47
2023-05-24T03:30:23.150Z,88.45
2023-05-24T03:33:12.768Z,88.37
2023-05-24T03:35:59.114Z,88.57
2023-05-24T03:38:45.161Z,87.74
2023-05-24T03:41:31.354Z,88.32
2023-05-24T03:44:19.293Z,89.04
2023-05-24T03:47:05.590Z,88.46
2023-05-24T03:49:51.579Z,88.20
2023-05-24T03:52:37.383Z,88.82
2023-05-24T03:55:22.795Z,88.38
2023-05-24T03:58:10.784Z,88.70
2023-05-24T04:00:56.998Z,88.09
2023-05-24T04:03:46.053Z,88.60
2023-05-24T04:06:31.842Z,89.14
2023-05-24T04:09:18.339Z,88.88
2023-05-24T04:12:04.179Z,88.56
2023-05-24T04:14:50.066Z,87.91
2023-05-24T04:17:35.996Z,88.89
2023-05-24T04:20:27.220Z,88.28
2023-05-24T04:23:12.798Z,88.93
2023-05-24T04:25:58.901Z,88.83
2023-05-24T04:28:46.901Z,88.36
2023-05-24T04:31:34.369Z,88.83
2023-05-24T04:34:22.413Z,88.23
2023-05-24T04:37:09.562Z,88.63
2023-05-24T04:39:55.869Z,87.92
2023-05-24T04:42:42.772Z,88.61
2023-05-24T04:45:30.370Z,88.55
2023-05-24T04:48:16.705Z,88.74
2023-05-24T04:51:02.903Z,88.78
2023-05-24T04:53:49.233Z,88.92
2023-05-24T04:56:38.802Z,88.03
2023-05-24T04:59:25.060Z,88.17
2023-05-24T05:02:10.769Z,88.25
2023-05-24T05:04:56.818Z,89.17
2023-05-24T05:07:42.282Z,88.69
2023-05-24T05:10:28.608Z,88.99
2023-05-24T05:13:14.273Z,88.54
2023-05-24T05:16:00.086Z,88.45
2023-05-24T05:18:46.259Z,88.37
2023-05-24T05:21:36.493Z,88.36
2023-05-24T05:24:22.131Z,88.38
2023-05-24T05:27:09.314Z,88.86
2023-05-24T05:29:57.554Z,88.60
2023-05-24T05:32:43.970Z,88.85
2023-05-24T05:35:30.142Z,89.07
2023-05-24T05:38:16.360Z,88.73
2023-05-24T05:41:02.275Z,88.86
2023-05-24T05:43:48.380Z,88.55
2023-05-24T05:46:33.836Z,89.77
2023-05-24T05:49:20.419Z,89.05
2023-05-24T05:52:06.371Z,88.12
2023-05-24T05:54:52.264Z,88.83
2023-05-24T05:57:38.013Z,88.48
2023-05-24T06:00:24.024Z,88.67
2023-05-24T06:03:09.902Z,88.45
2023-05-24T06:05:55.949Z,89.38
2023-05-24T06:08:41.932Z,89.08
2023-05-24T06:11:28.111Z,88.57
2023-05-24T06:14:18.234Z,88.64
2023-05-24T06:17:05.047Z,89.65
2023-05-24T06:19:55.176Z,88.85
2023-05-24T06:22:42.758Z,88.79
2023-05-24T06:25:38.802Z,89.70
2023-05-24T06:28:24.591Z,88.35
2023-05-24T06:31:10.319Z,88.93
2023-05-24T06:34:03.293Z,88.94
2023-05-24T06:36:51.594Z,88.67
2023-05-24T06:39:37.920Z,88.37
2023-05-24T06:42:23.518Z,88.45
2023-05-24T06:45:11.204Z,88.67
2023-05-24T06:47:57.238Z,88.31
2023-05-24T06:50:44.065Z,88.64
2023-05-24T06:53:29.968Z,88.54
2023-05-24T06:56:16.688Z,88.78
2023-05-24T06:59:02.579Z,88.64
2023-05-24T07:01:51.701Z,88.23
2023-05-24T07:04:37.749Z,88.43
2023-05-24T07:07:23.933Z,88.51
2023-05-24T07:10:10.816Z,88.48
2023-05-24T07:12:57.013Z,87.92
2023-05-24T07:15:42.823Z,88.73
2023-05-24T07:18:30.157Z,88.20
2023-05-24T07:21:16.089Z,87.85
2023-05-24T07:24:04.018Z,88.49
2023-05-24T07:26:51.124Z,88.14
2023-05-24T07:29:38.252Z,88.17
2023-05-24T07:32:24.672Z,88.32
2023-05-24T07:35:13.081Z,88.34
2023-05-24T07:37:58.510Z,87.63
2023-05-24T07:40:44.679Z,88.01
2023-05-24T07:43:30.390Z,87.89
2023-05-24T07:46:16.439Z,87.42
2023-05-24T07:49:02.468Z,87.67
2023-05-24T07:51:48.996Z,87.30
2023-05-24T07:54:34.391Z,87.52
2023-05-24T07:57:20.345Z,87.25
2023-05-24T08:00:14.637Z,87.46
2023-05-24T08:03:01.093Z,87.30
2023-05-24T08:05:47.104Z,87.50
2023-05-24T08:08:33.736Z,87.18
2023-05-24T08:11:19.663Z,86.93
2023-05-24T08:14:06.029Z,86.59
2023-05-24T08:16:51.569Z,86.72
2023-05-24T08:19:37.929Z,86.31
2023-05-24T08:22:23.449Z,86.40
2023-05-24T08:25:10.822Z,86.63
2023-05-24T08:27:57.792Z,86.74
2023-05-24T08:30:43.934Z,86.35
2023-05-24T08:33:29.990Z,85.88
2023-05-24T08:36:17.662Z,86.43
2023-05-24T08:39:04.940Z,86.39
2023-05-24T08:42:07.347Z,86.40
2023-05-24T08:45:15.023Z,85.86
2023-05-24T08:48:01.618Z,85.85
2023-05-24T08:50:47.681Z,86.10
2023-05-24T08:53:33.773Z,86.21
2023-05-24T08:56:19.744Z,86.19
2023-05-24T08:59:06.561Z,85.79
2023-05-24T09:01:54.586Z,85.67
2023-05-24T09:04:41.764Z,85.97
2023-05-24T09:07:27.752Z,86.52
2023-05-24T09:10:13.896Z,86.19
2023-05-24T09:13:02.910Z,86.86
2023-05-24T09:15:48.994Z,86.31
2023-05-24T09:18:35.174Z,85.97
2023-05-24T09:21:22.345Z,86.13
2023-05-24T09:24:08.496Z,85.97
2023-05-24T09:26:54.560Z,86.37
2023-05-24T09:29:41.426Z,86.25
2023-05-24T09:32:28.767Z,86.11
2023-05-24T09:35:14.326Z,86.41
2023-05-24T09:38:00.584Z,86.20
2023-05-24T09:40:46.986Z,85.91
2023-05-24T09:43:34.799Z,85.15
2023-05-24T09:46:21.618Z,85.42
2023-05-24T09:49:08.685Z,85.25
2023-05-24T09:51:54.889Z,85.78
2023-05-24T09:54:41.842Z,85.08
2023-05-24T09:57:28.240Z,84.41
2023-05-24T10:00:16.602Z,84.75
2023-05-24T10:03:04.744Z,84.91
2023-05-24T10:05:53.354Z,84.59
2023-05-24T10:08:39.177Z,84.63
2023-05-24T10:11:25.193Z,84.72
2023-05-24T10:14:11.150Z,84.84
2023-05-24T10:16:56.994Z,84.82
2023-05-24T10:19:42.885Z,84.65
2023-05-24T10:22:29.222Z,84.50
2023-05-24T10:25:21.872Z,84.48
2023-05-24T10:28:11.377Z,83.86
2023-05-24T10:31:13.089Z,83.87
2023-05-24T10:34:07.031Z,83.59
2023-05-24T10:36:53.342Z,83.55
2023-05-24T10:39:39.517Z,83.03
2023-05-24T10:42:26.387Z,82.56
2023-05-24T10:45:27.537Z,82.68
2023-05-24T10:48:13.370Z,82.53
2023-05-24T10:51:01.359Z,82.43
2023-05-24T10:53:47.376Z,81.97
2023-05-24T10:56:40.577Z,81.91
2023-05-24T10:59:35.163Z,81.98
2023-05-24T11:02:21.113Z,81.68
2023-05-24T11:05:07.597Z,81.65
2023-05-24T11:07:59.512Z,81.69
2023-05-24T11:10:45.304Z,81.76
2023-05-24T11:13:32.803Z,81.98
2023-05-24T11:16:37.154Z,82.27
2023-05-24T11:19:37.009Z,81.61
2023-05-24T11:22:25.544Z,82.07
2023-05-24T11:25:12.900Z,82.22
2023-05-24T11:27:58.944Z,82.11
2023-05-24T11:30:47.238Z,82.40
2023-05-24T11:33:33.273Z,82.14
2023-05-24T11:36:20.093Z,82.02
2023-05-24T11:39:08.403Z,82.46
2023-05-24T11:41:54.657Z,82.46
2023-05-24T11:44:40.711Z,82.50
2023-05-24T11:47:27.104Z,82.42
2023-05-24T11:50:16.149Z,82.54
2023-05-24T11:53:03.833Z,82.49
2023-05-24T11:55:49.325Z,82.59
2023-05-24T11:58:45.859Z,82.47
2023-05-24T12:01:31.741Z,82.87
2023-05-24T12:04:17.649Z,82.54
2023-05-24T12:07:03.689Z,82.58
2023-05-24T12:09:50.670Z,82.62
2023-05-24T12:12:45.684Z,82.53
2023-05-24T12:15:32.407Z,82.28
2023-05-24T12:18:21.722Z,82.04
2023-05-24T12:21:11.337Z,82.34
2023-05-24T12:23:57.124Z,81.91
2023-05-24T12:26:47.638Z,82.01
2023-05-24T12:29:37.797Z,82.09
2023-05-24T12:32:24.033Z,81.70
2023-05-24T12:35:11.417Z,82.09
2023-05-24T12:38:01.018Z,82.09
2023-05-24T12:40:51.964Z,81.86
2023-05-24T12:43:51.349Z,82.21
2023-05-24T12:46:37.036Z,82.23
2023-05-24T12:49:24.460Z,82.09
2023-05-24T12:52:12.418Z,82.17
2023-05-24T12:54:58.765Z,82.13
2023-05-24T12:57:44.901Z,82.23
2023-05-24T13:00:31.329Z,82.33
2023-05-24T13:03:16.735Z,82.25
2023-05-24T13:06:03.016Z,82.51
2023-05-24T13:08:48.875Z,82.34
2023-05-24T13:11:35.281Z,82.28
2023-05-24T13:14:21.403Z,82.39
2023-05-24T13:17:07.878Z,82.13
2023-05-24T13:19:53.434Z,82.58
2023-05-24T13:22:39.905Z,82.50
2023-05-24T13:25:26.627Z,82.60
2023-05-24T13:28:12.370Z,82.94
2023-05-24T13:30:58.802Z,83.13
2023-05-24T13:33:45.109Z,82.80
2023-05-24T13:36:30.758Z,83.31
2023-05-24T13:39:16.953Z,83.24
2023-05-24T13:42:02.970Z,83.47
2023-05-24T13:44:49.083Z,83.64
2023-05-24T13:47:39.875Z,83.53
2023-05-24T13:50:27.173Z,83.74
2023-05-24T13:53:13.589Z,83.76
2023-05-24T13:56:00.880Z,83.74
2023-05-24T13:58:46.651Z,83.50
2023-05-24T14:01:33.610Z,83.28
2023-05-24T14:04:19.800Z,83.43
2023-05-24T14:07:08.103Z,83.43
2023-05-24T14:09:53.656Z,83.47
2023-05-24T14:12:39.588Z,83.27
2023-05-24T14:15:25.016Z,83.46
2023-05-24T14:18:11.006Z,83.01
2023-05-24T14:20:56.765Z,83.08
2023-05-24T14:23:43.038Z,82.89
2023-05-24T14:26:28.613Z,83.05
2023-05-24T14:29:14.693Z,83.03
2023-05-24T14:32:00.488Z,83.11
2023-05-24T14:34:46.934Z,82.96
2023-05-24T14:37:32.495Z,82.80
2023-05-24T14:40:19.963Z,82.68
2023-05-24T14:43:07.016Z,82.79
2023-05-24T14:45:52.911Z,83.08
2023-05-24T14:48:41.521Z,82.73
2023-05-24T14:51:27.672Z,82.72
2023-05-24T14:54:13.664Z,82.96
2023-05-24T14:57:00.130Z,82.95
2023-05-24T14:59:45.891Z,82.92
2023-05-24T15:02:31.766Z,82.59
2023-05-24T15:05:17.950Z,83.16
2023-05-24T15:08:05.059Z,83.34
2023-05-24T15:10:51.105Z,83.33
2023-05-24T15:13:38.463Z,83.29
2023-05-24T15:16:27.207Z,84.14
2023-05-24T15:19:13.456Z,84.00
2023-05-24T15:21:59.342Z,83.70
2023-05-24T15:24:45.488Z,84.10
2023-05-24T15:27:30.919Z,83.91
2023-05-24T15:30:19.260Z,84.10
2023-05-24T15:33:05.029Z,84.27
2023-05-24T15:35:51.276Z,84.20
2023-05-24T15:38:38.776Z,83.83
2023-05-24T15:41:25.190Z,84.12
2023-05-24T15:44:11.053Z,84.06
2023-05-24T15:46:57.059Z,84.33
2023-05-24T15:49:43.189Z,84.43
2023-05-24T15:52:29.004Z,83.69
2023-05-24T15:55:15.253Z,84.53
2023-05-24T15:58:01.986Z,84.32
2023-05-24T16:00:49.067Z,84.61
2023-05-24T16:03:44.815Z,85.14
2023-05-24T16:06:40.677Z,84.89
2023-05-24T16:09:30.219Z,84.90
2023-05-24T16:12:17.090Z,84.67
2023-05-24T16:15:04.350Z,85.14
2023-05-24T16:17:50.895Z,84.79
2023-05-24T16:20:37.134Z,85.54
2023-05-24T16:23:25.874Z,85.13
2023-05-24T16:26:12.781Z,85.32
2023-05-24T16:28:59.059Z,85.68
2023-05-24T16:31:46.334Z,85.53
2023-05-24T16:34:41.450Z,85.54
2023-05-24T16:37:38.942Z,85.44
2023-05-24T16:40:25.042Z,85.73
2023-05-24T16:43:11.575Z,85.94
2023-05-24T16:45:57.693Z,85.94
2023-05-24T16:48:44.593Z,86.28
2023-05-24T16:51:30.863Z,86.45
2023-05-24T16:54:17.638Z,86.34
2023-05-24T16:57:04.110Z,86.70
2023-05-24T16:59:51.196Z,86.29
2023-05-24T17:02:37.360Z,86.46
2023-05-24T17:05:25.952Z,86.19
2023-05-24T17:08:12.796Z,86.61
2023-05-24T17:10:59.369Z,87.04
2023-05-24T17:13:54.000Z,87.44
2023-05-24T17:46:25.159Z,87.38
2023-05-24T17:49:14.191Z,87.43
2023-05-24T17:52:03.416Z,86.79
2023-05-24T17:59:37.521Z,87.98
2023-05-24T18:14:19.687Z,88.32
2023-05-24T18:17:09.497Z,88.06
2023-05-24T18:24:18.196Z,88.70
2023-05-24T18:43:17.746Z,88.41
2023-05-24T18:46:05.971Z,88.53
2023-05-24T18:54:01.149Z,88.78
2023-05-24T18:56:47.863Z,88.82
2023-05-24T18:59:34.658Z,88.61
2023-05-24T19:02:21.130Z,89.41
2023-05-24T19:05:11.201Z,89.58
2023-05-24T19:07:57.677Z,88.93
2023-05-24T19:10:49.785Z,88.77
2023-05-24T19:13:36.171Z,89.16
2023-05-24T19:16:22.891Z,89.66
2023-05-24T19:19:11.368Z,89.29
2023-05-24T19:27:17.705Z,89.82
2023-05-24T19:30:05.672Z,89.46
2023-05-24T19:32:56.076Z,90.00
2023-05-24T19:41:11.611Z,90.02
2023-05-24T19:44:01.208Z,89.73
2023-05-24T21:28:37.772Z,91.24
2023-05-24T21:31:24.787Z,91.11
2023-05-24T21:45:14.611Z,91.45
2023-05-24T21:48:01.606Z,91.66
2023-05-24T22:01:42.512Z,91.96
2023-05-24T22:04:29.436Z,91.66
2023-05-24T22:18:11.441Z,92.88
2023-05-24T22:21:02.317Z,92.73
2023-05-24T22:23:50.271Z,92.46
2023-05-24T22:26:37.181Z,92.38
2023-05-24T22:40:23.531Z,92.57
2023-05-24T22:43:10.008Z,93.20
2023-05-24T22:45:56.920Z,93.15
2023-05-24T22:48:43.677Z,93.24
2023-05-24T22:51:30.386Z,93.24
2023-05-24T22:54:17.377Z,92.94
2023-05-24T23:23:54.093Z,93.26
2023-05-24T23:26:42.236Z,93.28
2023-05-24T23:29:28.527Z,93.22
2023-05-24T23:32:15.278Z,93.35
